createdAt,value
2019-01-30T00:00:08.954Z,73.25
2019-01-30T00:01:07.503Z,72.68
2019-01-30T00:02:06.226Z,73.35
2019-01-30T00:03:04.801Z,73.07
2019-01-30T00:04:03.405Z,72.78
2019-01-30T00:05:02.257Z,72.88
2019-01-30T00:06:00.987Z,72.21
2019-01-30T00:06:59.541Z,72.68
2019-01-30T00:07:58.168Z,72.11
2019-01-30T00:08:56.869Z,72.78
2019-01-30T00:09:55.418Z,72.3
2019-01-30T00:10:53.961Z,72.59
2019-01-30T00:11:52.516Z,72.88
2019-01-30T00:12:51.051Z,73.25
2019-01-30T00:13:49.587Z,72.59
2019-01-30T00:14:48.448Z,72.21
2019-01-30T00:15:55.964Z,72.68
2019-01-30T00:16:45.812Z,72.88
2019-01-30T00:17:44.504Z,72.78
2019-01-30T00:18:43.057Z,72.3
2019-01-30T00:19:41.631Z,72.21
2019-01-30T00:20:40.506Z,72.11
2019-01-30T00:21:39.061Z,71.73
2019-01-30T00:22:37.598Z,72.97
2019-01-30T00:23:36.385Z,72.4
2019-01-30T00:24:35.123Z,72.11
2019-01-30T00:25:33.658Z,72.11
2019-01-30T00:26:32.194Z,72.21
2019-01-30T00:27:30.749Z,72.02
2019-01-30T00:28:29.276Z,71.83
2019-01-30T00:29:27.820Z,71.83
2019-01-30T00:30:26.698Z,71.73
2019-01-30T00:31:25.251Z,72.3
2019-01-30T00:32:24.054Z,72.02
2019-01-30T00:33:22.734Z,71.83
2019-01-30T00:34:21.238Z,71.45
2019-01-30T00:35:19.763Z,71.73
2019-01-30T00:36:18.289Z,72.02
2019-01-30T00:37:16.918Z,72.3
2019-01-30T00:38:15.439Z,71.83
2019-01-30T00:39:13.994Z,71.92
2019-01-30T00:40:12.802Z,72.02
2019-01-30T00:41:11.335Z,72.02
2019-01-30T00:42:09.923Z,72.21
2019-01-30T00:43:08.710Z,71.73
2019-01-30T00:44:07.301Z,71.73
2019-01-30T00:45:05.807Z,71.83
2019-01-30T00:46:04.420Z,72.11
2019-01-30T00:47:02.983Z,72.02
2019-01-30T00:48:01.519Z,72.11
2019-01-30T00:49:00.094Z,72.02
2019-01-30T00:49:58.795Z,72.11
2019-01-30T00:50:57.350Z,71.83
2019-01-30T00:51:56.027Z,72.02
2019-01-30T00:52:54.840Z,71.83
2019-01-30T00:53:53.384Z,72.3
2019-01-30T00:54:51.925Z,71.73
2019-01-30T00:55:50.648Z,71.26
2019-01-30T00:56:49.206Z,71.17
2019-01-30T00:57:47.738Z,71.55
2019-01-30T00:58:46.273Z,71.45
2019-01-30T00:59:44.846Z,70.31
2019-01-30T01:00:43.389Z,70.69
2019-01-30T01:01:42.188Z,71.26
2019-01-30T01:02:40.780Z,71.64
2019-01-30T01:03:39.306Z,70.98
2019-01-30T01:04:38.017Z,71.55
2019-01-30T01:05:36.730Z,71.55
2019-01-30T01:06:35.282Z,70.21
2019-01-30T01:09:15.687Z,70.98
2019-01-30T01:10:14.414Z,70.63
2019-01-30T01:11:13.001Z,70.98
2019-01-30T01:12:11.531Z,70.69
2019-01-30T01:13:10.252Z,70.31
2019-01-30T01:14:08.805Z,70.12
2019-01-30T01:15:07.319Z,70.44
2019-01-30T01:16:05.856Z,70.12
2019-01-30T01:17:04.490Z,70.78
2019-01-30T01:18:03.018Z,70.44
2019-01-30T01:19:01.580Z,70.73
2019-01-30T01:20:00.204Z,70.98
2019-01-30T01:20:58.792Z,70.69
2019-01-30T01:21:57.351Z,70.78
2019-01-30T01:22:55.964Z,71.26
2019-01-30T01:23:54.862Z,71.45
2019-01-30T01:24:53.424Z,70.98
2019-01-30T01:25:51.961Z,71.45
2019-01-30T01:26:50.533Z,71.07
2019-01-30T01:27:49.071Z,71.45
2019-01-30T01:28:48.078Z,71.73
2019-01-30T01:29:46.910Z,71.55
2019-01-30T01:30:45.471Z,71.36
2019-01-30T01:31:44.007Z,70.98
2019-01-30T01:32:42.576Z,71.07
2019-01-30T01:33:41.120Z,71.36
2019-01-30T01:34:40.450Z,71.36
2019-01-30T01:35:39.155Z,71.45
2019-01-30T01:36:37.705Z,71.45
2019-01-30T01:37:36.282Z,70.98
2019-01-30T01:38:36.140Z,71.26
2019-01-30T01:39:34.887Z,71.45
2019-01-30T01:40:33.426Z,71.45
2019-01-30T01:41:32.042Z,71.55
2019-01-30T01:42:30.684Z,71.55
2019-01-30T01:43:29.237Z,71.26
2019-01-30T01:44:27.792Z,71.45
2019-01-30T01:45:26.336Z,71.36
2019-01-30T01:46:24.863Z,71.45
2019-01-30T01:47:23.419Z,71.26
2019-01-30T01:48:21.933Z,70.69
2019-01-30T01:49:20.539Z,71.07
2019-01-30T01:50:19.087Z,71.55
2019-01-30T01:51:17.615Z,70.88
2019-01-30T01:52:16.450Z,71.26
2019-01-30T01:53:15.061Z,70.88
2019-01-30T01:54:13.972Z,70.4
2019-01-30T01:55:12.509Z,70.78
2019-01-30T01:56:11.072Z,70.78
2019-01-30T01:57:09.632Z,70.5
2019-01-30T01:58:08.474Z,70.5
2019-01-30T01:59:07.040Z,70.69
2019-01-30T02:00:05.906Z,70.59
2019-01-30T02:01:04.514Z,70.59
2019-01-30T02:02:03.170Z,70.78
2019-01-30T02:03:01.755Z,69.84
2019-01-30T02:04:00.586Z,70.21
2019-01-30T02:04:59.135Z,70.59
2019-01-30T02:05:57.678Z,71.07
2019-01-30T02:06:56.428Z,70.69
2019-01-30T02:07:55.123Z,70.59
2019-01-30T02:08:53.699Z,70.12
2019-01-30T02:09:52.657Z,69.93
2019-01-30T02:10:51.200Z,70.03
2019-01-30T02:11:49.756Z,69.93
2019-01-30T02:12:48.554Z,69.93
2019-01-30T02:13:47.197Z,69.93
2019-01-30T02:14:45.747Z,69.93
2019-01-30T02:15:44.308Z,70.03
2019-01-30T02:16:42.862Z,70.15
2019-01-30T02:17:41.428Z,70.35
2019-01-30T02:18:40.330Z,69.87
2019-01-30T02:19:39.009Z,70.15
2019-01-30T02:20:37.558Z,70.35
2019-01-30T02:21:36.221Z,69.4
2019-01-30T02:22:34.827Z,69.49
2019-01-30T02:23:33.374Z,69.3
2019-01-30T02:24:31.932Z,69.68
2019-01-30T02:25:30.516Z,69.17
2019-01-30T02:26:29.075Z,69.46
2019-01-30T02:27:27.613Z,69.93
2019-01-30T02:28:26.854Z,70.12
2019-01-30T02:29:25.462Z,70.21
2019-01-30T02:30:23.971Z,69.65
2019-01-30T02:31:22.613Z,70.59
2019-01-30T02:32:21.128Z,70.12
2019-01-30T02:33:19.666Z,70.21
2019-01-30T02:34:18.471Z,70.78
2019-01-30T02:35:17.023Z,70.21
2019-01-30T02:36:15.581Z,70.31
2019-01-30T02:37:14.373Z,70.15
2019-01-30T02:38:13.087Z,70.21
2019-01-30T02:39:11.617Z,70.06
2019-01-30T02:40:10.162Z,69.93
2019-01-30T02:41:08.746Z,69.74
2019-01-30T02:42:07.317Z,69.74
2019-01-30T02:43:06.183Z,69.59
2019-01-30T02:44:04.876Z,70.15
2019-01-30T02:45:03.414Z,69.36
2019-01-30T02:46:02.055Z,69.4
2019-01-30T02:47:00.758Z,69.68
2019-01-30T02:47:59.336Z,69.65
2019-01-30T02:48:57.977Z,69.08
2019-01-30T02:49:56.784Z,69.36
2019-01-30T02:50:55.343Z,69.93
2019-01-30T02:51:54.030Z,70.21
2019-01-30T02:52:52.773Z,70.4
2019-01-30T02:53:51.395Z,69.84
2019-01-30T02:54:49.870Z,70.31
2019-01-30T02:55:48.424Z,69.96
2019-01-30T02:56:46.991Z,69.3
2019-01-30T02:57:45.530Z,69.74
2019-01-30T02:58:44.455Z,69.78
2019-01-30T02:59:43.095Z,70.25
2019-01-30T03:00:41.648Z,69.87
2019-01-30T03:01:40.276Z,70.15
2019-01-30T03:02:38.993Z,69.87
2019-01-30T03:03:37.537Z,69.96
2019-01-30T03:04:36.066Z,69.87
2019-01-30T03:05:34.768Z,70.03
2019-01-30T03:06:33.300Z,69.96
2019-01-30T03:07:31.919Z,69.36
2019-01-30T03:08:30.612Z,69.55
2019-01-30T03:09:29.167Z,69.87
2019-01-30T03:10:27.718Z,70.21
2019-01-30T03:11:26.478Z,69.87
2019-01-30T03:12:25.245Z,69.65
2019-01-30T03:13:23.803Z,69.96
2019-01-30T03:14:22.620Z,69.74
2019-01-30T03:15:21.175Z,70.15
2019-01-30T03:16:19.712Z,69.96
2019-01-30T03:17:18.522Z,69.96
2019-01-30T03:18:17.192Z,69.96
2019-01-30T03:19:15.736Z,69.78
2019-01-30T03:20:14.264Z,69.93
2019-01-30T03:21:12.858Z,69.84
2019-01-30T03:22:11.455Z,70.12
2019-01-30T03:23:10.266Z,70.12
2019-01-30T03:24:09.060Z,70.03
2019-01-30T03:25:07.608Z,69.74
2019-01-30T03:26:06.328Z,70.69
2019-01-30T03:27:04.924Z,70.78
2019-01-30T03:28:03.477Z,70.12
2019-01-30T03:29:02.340Z,70.03
2019-01-30T03:30:01.028Z,70.4
2019-01-30T03:31:15.538Z,70.15
2019-01-30T03:31:58.271Z,70.31
2019-01-30T03:32:56.937Z,70.15
2019-01-30T03:33:55.558Z,70.63
2019-01-30T03:34:54.085Z,70.44
2019-01-30T03:35:52.699Z,70.15
2019-01-30T03:36:51.237Z,70.15
2019-01-30T03:37:49.783Z,69.68
2019-01-30T03:38:48.553Z,70.06
2019-01-30T03:39:47.095Z,70.15
2019-01-30T03:40:45.636Z,69.96
2019-01-30T03:41:44.431Z,69.96
2019-01-30T03:42:43.071Z,69.78
2019-01-30T03:43:41.631Z,70.15
2019-01-30T03:44:40.179Z,70.25
2019-01-30T03:45:39.041Z,70.15
2019-01-30T03:46:37.596Z,70.06
2019-01-30T03:47:36.222Z,69.87
2019-01-30T03:48:34.872Z,69.59
2019-01-30T03:49:33.427Z,69.4
2019-01-30T03:50:32.031Z,69.4
2019-01-30T03:51:30.782Z,69.4
2019-01-30T03:52:29.439Z,69.4
2019-01-30T03:53:28.362Z,69.78
2019-01-30T03:54:26.996Z,69.78
2019-01-30T03:55:26.307Z,69.59
2019-01-30T03:56:25.042Z,69.4
2019-01-30T03:57:23.594Z,69.4
2019-01-30T03:58:22.171Z,69.96
2019-01-30T03:59:20.970Z,69.78
2019-01-30T04:00:19.513Z,69.96
2019-01-30T04:01:26.407Z,69.74
2019-01-30T04:02:17.073Z,69.4
2019-01-30T04:03:15.620Z,69.96
2019-01-30T04:04:14.288Z,69.87
2019-01-30T04:05:12.959Z,69.96
2019-01-30T04:06:11.499Z,69.93
2019-01-30T04:07:10.026Z,70.21
2019-01-30T04:08:08.595Z,70.35
2019-01-30T04:09:07.207Z,69.78
2019-01-30T04:10:05.841Z,70.06
2019-01-30T04:11:04.561Z,69.96
2019-01-30T04:12:03.125Z,70.35
2019-01-30T04:13:01.678Z,70.06
2019-01-30T04:14:00.831Z,69.59
2019-01-30T04:14:59.230Z,70.06
2019-01-30T04:15:57.817Z,69.96
2019-01-30T04:16:56.643Z,69.78
2019-01-30T04:17:55.184Z,69.78
2019-01-30T04:18:53.751Z,69.78
2019-01-30T04:19:52.520Z,69.96
2019-01-30T04:20:51.199Z,70.25
2019-01-30T04:21:49.748Z,70.82
2019-01-30T04:22:48.329Z,70.73
2019-01-30T04:23:46.859Z,70.73
2019-01-30T04:24:45.416Z,70.63
2019-01-30T04:25:44.291Z,70.73
2019-01-30T04:26:42.971Z,70.44
2019-01-30T04:27:41.807Z,70.06
2019-01-30T04:28:40.347Z,69.87
2019-01-30T04:29:38.977Z,70.15
2019-01-30T04:30:37.519Z,70.06
2019-01-30T04:31:38.125Z,70.15
2019-01-30T04:32:35.112Z,70.06
2019-01-30T04:33:34.716Z,69.78
2019-01-30T04:34:33.265Z,70.21
2019-01-30T04:35:31.817Z,70.15
2019-01-30T04:36:30.431Z,70.44
2019-01-30T04:37:28.972Z,70.63
2019-01-30T04:38:28.358Z,70.25
2019-01-30T04:39:26.899Z,70.54
2019-01-30T04:40:25.472Z,69.87
2019-01-30T04:41:24.006Z,70.44
2019-01-30T04:42:22.529Z,70.25
2019-01-30T04:43:21.157Z,69.96
2019-01-30T04:44:19.728Z,69.96
2019-01-30T04:45:18.524Z,70.25
2019-01-30T04:46:17.084Z,69.96
2019-01-30T04:47:15.630Z,70.06
2019-01-30T04:48:14.409Z,70.54
2019-01-30T04:49:13.128Z,70.15
2019-01-30T04:50:11.685Z,70.35
2019-01-30T04:51:10.225Z,70.44
2019-01-30T04:52:08.915Z,70.06
2019-01-30T04:53:07.535Z,70.35
2019-01-30T04:54:07.082Z,69.68
2019-01-30T04:55:04.918Z,70.35
2019-01-30T04:56:03.500Z,69.87
2019-01-30T04:57:02.050Z,70.63
2019-01-30T04:58:00.728Z,70.25
2019-01-30T04:58:59.481Z,70.54
2019-01-30T04:59:58.208Z,70.06
2019-01-30T05:00:56.950Z,70.44
2019-01-30T05:01:55.492Z,70.44
2019-01-30T05:02:54.146Z,70.25
2019-01-30T05:03:52.841Z,70.63
2019-01-30T05:04:51.379Z,70.44
2019-01-30T05:05:49.945Z,71.3
2019-01-30T05:06:48.497Z,71.58
2019-01-30T05:07:47.089Z,71.39
2019-01-30T05:08:45.570Z,70.54
2019-01-30T05:09:44.401Z,70.73
2019-01-30T05:10:43.157Z,71.48
2019-01-30T05:11:41.745Z,71.48
2019-01-30T05:12:40.407Z,71.01
2019-01-30T05:13:38.991Z,71.39
2019-01-30T05:14:37.559Z,70.73
2019-01-30T05:15:36.106Z,70.63
2019-01-30T05:16:34.666Z,71.2
2019-01-30T05:17:33.226Z,71.48
2019-01-30T05:18:31.773Z,71.77
2019-01-30T05:19:30.610Z,71.39
2019-01-30T05:20:29.175Z,71.58
2019-01-30T05:21:27.722Z,71.86
2019-01-30T05:22:26.451Z,71.48
2019-01-30T05:23:25.122Z,71.58
2019-01-30T05:24:23.684Z,71.96
2019-01-30T05:25:22.291Z,72.15
2019-01-30T05:26:21.065Z,71.67
2019-01-30T05:27:19.630Z,72.34
2019-01-30T05:28:18.506Z,71.86
2019-01-30T05:29:17.283Z,71.96
2019-01-30T05:30:15.851Z,72.25
2019-01-30T05:31:14.710Z,72.72
2019-01-30T05:32:13.291Z,72.25
2019-01-30T05:33:11.828Z,72.25
2019-01-30T05:34:10.609Z,72.53
2019-01-30T05:35:09.270Z,72.53
2019-01-30T05:36:07.843Z,72.81
2019-01-30T05:37:06.396Z,72.72
2019-01-30T05:38:04.915Z,72.15
2019-01-30T05:39:03.469Z,72.34
2019-01-30T05:40:02.384Z,71.96
2019-01-30T05:41:01.146Z,72.06
2019-01-30T05:41:59.692Z,71.86
2019-01-30T05:42:58.410Z,71.77
2019-01-30T05:43:57.003Z,71.58
2019-01-30T05:44:55.933Z,71.77
2019-01-30T05:45:54.745Z,71.77
2019-01-30T05:46:53.340Z,71.67
2019-01-30T05:47:51.940Z,71.58
2019-01-30T05:48:50.563Z,71.11
2019-01-30T05:49:49.138Z,71.11
2019-01-30T05:50:47.691Z,71.67
2019-01-30T05:51:46.562Z,71.39
2019-01-30T05:52:45.106Z,71.39
2019-01-30T05:53:43.902Z,71.01
2019-01-30T05:54:42.689Z,71.67
2019-01-30T05:55:41.205Z,71.48
2019-01-30T05:56:39.731Z,71.77
2019-01-30T05:57:38.294Z,71.67
2019-01-30T05:58:37.061Z,71.2
2019-01-30T05:59:35.615Z,70.44
2019-01-30T06:00:34.533Z,70.92
2019-01-30T06:01:33.169Z,70.92
2019-01-30T06:02:31.712Z,71.67
2019-01-30T06:03:30.277Z,71.48
2019-01-30T06:04:28.837Z,71.48
2019-01-30T06:05:27.375Z,71.48
2019-01-30T06:06:26.029Z,71.67
2019-01-30T06:07:24.814Z,71.67
2019-01-30T06:08:23.398Z,71.77
2019-01-30T06:09:22.089Z,71.96
2019-01-30T06:10:20.926Z,71.77
2019-01-30T06:11:19.490Z,71.52
2019-01-30T06:12:18.115Z,71.43
2019-01-30T06:13:16.810Z,71.62
2019-01-30T06:14:15.381Z,71.33
2019-01-30T06:15:13.951Z,71.52
2019-01-30T06:16:12.814Z,71.81
2019-01-30T06:17:11.363Z,71.23
2019-01-30T06:18:09.932Z,71.39
2019-01-30T06:19:08.499Z,71.81
2019-01-30T06:20:07.127Z,71.9
2019-01-30T06:21:05.662Z,71.52
2019-01-30T06:22:04.484Z,71.62
2019-01-30T06:23:03.129Z,71.9
2019-01-30T06:24:01.710Z,71.62
2019-01-30T06:25:00.455Z,71.62
2019-01-30T06:25:59.086Z,71.52
2019-01-30T06:26:57.645Z,71.71
2019-01-30T06:27:56.220Z,71.23
2019-01-30T06:28:54.956Z,71.23
2019-01-30T06:29:53.574Z,71.33
2019-01-30T06:30:52.200Z,71.9
2019-01-30T06:31:50.965Z,73.14
2019-01-30T06:32:49.485Z,73.42
2019-01-30T06:33:48.018Z,72.85
2019-01-30T06:34:46.761Z,73.04
2019-01-30T06:35:45.371Z,72.66
2019-01-30T06:36:43.904Z,72.75
2019-01-30T06:37:42.812Z,72.56
2019-01-30T06:38:41.599Z,73.52
2019-01-30T06:39:40.186Z,73.33
2019-01-30T06:40:38.956Z,73.14
2019-01-30T06:41:37.496Z,72.19
2019-01-30T06:42:36.318Z,72.56
2019-01-30T06:43:35.042Z,74.56
2019-01-30T06:44:33.568Z,74.56
2019-01-30T06:45:32.213Z,74.56
2019-01-30T06:46:30.874Z,72.56
2019-01-30T06:47:29.418Z,73.23
2019-01-30T06:48:28.080Z,73.14
2019-01-30T06:49:26.576Z,73.61
2019-01-30T06:50:25.125Z,74.56
2019-01-30T06:51:23.985Z,75.32
2019-01-30T06:52:22.918Z,74.94
2019-01-30T06:53:21.465Z,73.61
2019-01-30T06:54:20.127Z,73.23
2019-01-30T06:55:18.856Z,73.99
2019-01-30T06:56:17.413Z,73.9
2019-01-30T06:57:16.103Z,73.8
2019-01-30T06:58:14.953Z,73.42
2019-01-30T06:59:13.625Z,73.71
2019-01-30T07:00:12.174Z,73.9
2019-01-30T07:01:10.720Z,73.61
2019-01-30T07:02:09.229Z,73.14
2019-01-30T07:03:07.785Z,73.04
2019-01-30T07:04:06.708Z,74.18
2019-01-30T07:05:05.264Z,74.08
2019-01-30T07:06:03.817Z,74.37
2019-01-30T07:07:02.574Z,74.37
2019-01-30T07:08:01.239Z,73.04
2019-01-30T07:08:59.786Z,73.23
2019-01-30T07:09:58.512Z,72.47
2019-01-30T07:10:57.242Z,73.52
2019-01-30T07:11:55.855Z,74.56
2019-01-30T07:12:54.638Z,76.27
2019-01-30T07:13:53.321Z,75.99
2019-01-30T07:14:51.862Z,75.79
2019-01-30T07:15:50.414Z,77.89
2019-01-30T07:16:49.038Z,79.5
2019-01-30T07:17:47.590Z,77.51
2019-01-30T07:18:46.456Z,99.99
2019-01-30T07:19:45.167Z,99.99
2019-01-30T07:20:43.812Z,99.99
2019-01-30T07:21:42.455Z,99.99
2019-01-30T07:22:41.098Z,99.99
2019-01-30T07:23:39.619Z,99.99
2019-01-30T07:24:38.509Z,99.99
2019-01-30T07:25:37.339Z,99.99
2019-01-30T07:26:35.881Z,99.99
2019-01-30T07:27:34.666Z,93.7
2019-01-30T07:28:33.260Z,93.41
2019-01-30T07:29:32.030Z,93.6
2019-01-30T07:30:30.909Z,99.99
2019-01-30T07:31:29.439Z,99.99
2019-01-30T07:32:28.002Z,99.99
2019-01-30T07:33:26.646Z,99.99
2019-01-30T07:34:25.193Z,99.99
2019-01-30T07:35:23.747Z,99.99
2019-01-30T07:36:22.699Z,99.99
2019-01-30T07:37:21.256Z,99.99
2019-01-30T07:38:19.793Z,99.99
2019-01-30T07:39:18.637Z,99.99
2019-01-30T07:40:17.247Z,99.99
2019-01-30T07:41:15.809Z,99.99
2019-01-30T07:42:14.472Z,99.99
2019-01-30T07:43:13.185Z,99.99
2019-01-30T07:44:11.836Z,99.99
2019-01-30T07:45:10.680Z,99.99
2019-01-30T07:46:09.328Z,99.99
2019-01-30T07:47:07.903Z,99.99
2019-01-30T07:48:06.454Z,99.99
2019-01-30T07:49:05.022Z,94.65
2019-01-30T07:50:03.617Z,91.89
2019-01-30T07:51:02.414Z,91.89
2019-01-30T07:52:01.154Z,92.46
2019-01-30T07:52:59.721Z,87.9
2019-01-30T07:53:58.402Z,83.44
2019-01-30T07:54:56.977Z,91.52
2019-01-30T07:55:55.529Z,96.17
2019-01-30T07:56:54.078Z,98.55
2019-01-30T07:57:52.641Z,94.93
2019-01-30T07:58:51.338Z,99.99
2019-01-30T07:59:49.999Z,99.99
2019-01-30T08:00:48.895Z,99.99
2019-01-30T08:01:47.438Z,99.99
2019-01-30T08:02:52.847Z,99.99
2019-01-30T08:03:44.931Z,99.99
2019-01-30T08:04:43.495Z,95.7
2019-01-30T08:05:42.152Z,94.18
2019-01-30T08:06:40.901Z,92.99
2019-01-30T08:07:39.437Z,93.75
2019-01-30T08:08:38.017Z,88.28
2019-01-30T08:09:36.698Z,84.86
2019-01-30T08:10:35.340Z,82.58
2019-01-30T08:11:33.868Z,99.93
2019-01-30T08:12:32.750Z,99.99
2019-01-30T08:13:31.300Z,99.99
2019-01-30T08:14:29.897Z,99.99
2019-01-30T08:15:28.579Z,99.99
2019-01-30T08:16:27.322Z,99.99
2019-01-30T08:17:25.890Z,99.99
2019-01-30T08:18:24.421Z,99.99
2019-01-30T08:19:23.072Z,99.99
2019-01-30T08:20:21.643Z,99.99
2019-01-30T08:21:20.358Z,99.93
2019-01-30T08:22:19.022Z,99.99
2019-01-30T08:23:17.649Z,99.99
2019-01-30T08:24:16.302Z,99.99
2019-01-30T08:25:15.173Z,99.99
2019-01-30T08:26:13.490Z,99.99
2019-01-30T08:27:12.109Z,94.89
2019-01-30T08:28:10.957Z,92.61
2019-01-30T08:29:09.659Z,90.99
2019-01-30T08:30:08.194Z,90.7
2019-01-30T08:31:07.320Z,85.1
2019-01-30T08:32:05.664Z,85.66
2019-01-30T08:33:05.773Z,83.76
2019-01-30T08:34:02.628Z,86.9
2019-01-30T08:35:01.177Z,83.76
2019-01-30T08:35:59.746Z,83
2019-01-30T08:36:58.600Z,85.66
2019-01-30T08:37:57.401Z,85.57
2019-01-30T08:38:56.077Z,87.47
2019-01-30T08:39:54.688Z,87.95
2019-01-30T08:40:53.231Z,83.86
2019-01-30T08:41:51.798Z,90.14
2019-01-30T08:42:52.062Z,99.99
2019-01-30T08:43:49.067Z,99.99
2019-01-30T08:44:47.629Z,99.99
2019-01-30T08:45:46.241Z,99.99
2019-01-30T08:46:45.226Z,99.99
2019-01-30T08:47:43.720Z,99.99
2019-01-30T08:50:24.140Z,94.32
2019-01-30T08:51:22.798Z,89.28
2019-01-30T08:52:21.339Z,86.61
2019-01-30T08:53:20.034Z,86.8
2019-01-30T08:54:18.698Z,85
2019-01-30T08:55:17.295Z,82.15
2019-01-30T08:56:15.868Z,85.1
2019-01-30T08:57:14.401Z,99.99
2019-01-30T08:58:12.943Z,92.41
2019-01-30T08:59:11.542Z,99.99
2019-01-30T09:00:10.115Z,99.99
2019-01-30T09:01:08.933Z,90.7
2019-01-30T09:02:07.521Z,87.95
2019-01-30T09:03:14.381Z,85.19
2019-01-30T09:04:04.932Z,82.91
2019-01-30T09:05:03.538Z,82.81
2019-01-30T09:06:02.103Z,81.96
2019-01-30T09:07:00.726Z,81.2
2019-01-30T09:07:59.298Z,81.29
2019-01-30T09:08:57.857Z,80.82
2019-01-30T09:09:56.528Z,82.91
2019-01-30T09:10:55.221Z,82.15
2019-01-30T09:11:53.776Z,81.01
2019-01-30T09:12:52.458Z,80.44
2019-01-30T09:13:51.124Z,88.61
2019-01-30T09:14:49.661Z,99.99
2019-01-30T09:15:48.340Z,99.99
2019-01-30T09:16:47.012Z,99.99
2019-01-30T09:17:46.126Z,99.99
2019-01-30T09:18:44.749Z,93.41
2019-01-30T09:19:43.335Z,84.72
2019-01-30T09:20:41.889Z,80.82
2019-01-30T09:21:40.682Z,80.82
2019-01-30T09:22:42.151Z,80.53
2019-01-30T09:23:39.950Z,80.53
2019-01-30T09:24:39.432Z,81.1
2019-01-30T09:25:38.034Z,80.63
2019-01-30T09:26:36.828Z,79.77
2019-01-30T09:27:35.479Z,85.1
2019-01-30T09:28:34.154Z,99.99
2019-01-30T09:29:33.022Z,99.99
2019-01-30T09:30:31.609Z,99.99
2019-01-30T09:31:30.285Z,99.99
2019-01-30T09:32:28.843Z,99.99
2019-01-30T09:33:27.498Z,99.99
2019-01-30T09:34:26.052Z,99.99
2019-01-30T09:35:24.952Z,92.32
2019-01-30T09:36:23.489Z,86.14
2019-01-30T09:37:22.042Z,83.48
2019-01-30T09:38:20.770Z,81.77
2019-01-30T09:39:19.547Z,82.91
2019-01-30T09:40:18.815Z,83.1
2019-01-30T09:41:17.414Z,82.91
2019-01-30T09:42:16.178Z,81.29
2019-01-30T09:43:15.066Z,80.34
2019-01-30T09:44:13.644Z,81.29
2019-01-30T09:45:12.293Z,81.38
2019-01-30T09:46:10.913Z,80.53
2019-01-30T09:47:09.439Z,94.03
2019-01-30T09:48:07.994Z,99.99
2019-01-30T09:49:06.663Z,99.99
2019-01-30T09:50:05.481Z,99.99
2019-01-30T09:51:04.157Z,99.99
2019-01-30T09:52:02.900Z,99.99
2019-01-30T09:53:01.508Z,93.79
2019-01-30T09:54:00.093Z,91.99
2019-01-30T09:54:58.708Z,91.7
2019-01-30T09:55:57.357Z,89.23
2019-01-30T09:56:55.970Z,83.71
2019-01-30T09:57:54.735Z,99.99
2019-01-30T09:58:53.417Z,99.99
2019-01-30T09:59:52.014Z,99.99
2019-01-30T10:00:50.680Z,99.99
2019-01-30T10:01:50.031Z,99.99
2019-01-30T10:02:49.488Z,99.99
2019-01-30T10:03:48.087Z,99.99
2019-01-30T10:04:46.996Z,99.99
2019-01-30T10:05:45.597Z,99.99
2019-01-30T10:06:44.281Z,99.99
2019-01-30T10:07:43.136Z,99.99
2019-01-30T10:08:41.789Z,92.46
2019-01-30T10:09:40.226Z,87.9
2019-01-30T10:13:23.358Z,99.99
2019-01-30T10:14:21.884Z,99.99
2019-01-30T10:15:20.559Z,99.99
2019-01-30T10:16:19.255Z,99.99
2019-01-30T10:17:17.827Z,99.99
2019-01-30T10:18:16.722Z,99.99
2019-01-30T10:19:15.276Z,99.46
2019-01-30T10:20:13.826Z,89.47
2019-01-30T10:21:12.642Z,86.85
2019-01-30T10:22:11.327Z,84.56
2019-01-30T10:23:09.863Z,83.62
2019-01-30T10:24:08.409Z,82.95
2019-01-30T10:41:14.715Z,86.57
2019-01-30T10:42:13.273Z,87.71
2019-01-30T10:43:11.830Z,99.99
2019-01-30T10:44:10.657Z,99.99
2019-01-30T10:45:09.365Z,99.99
2019-01-30T10:46:07.903Z,99.99
2019-01-30T10:47:06.559Z,99.99
2019-01-30T10:48:05.220Z,99.99
2019-01-30T10:49:03.788Z,99.99
2019-01-30T10:50:02.479Z,99.99
2019-01-30T10:51:01.171Z,99.99
2019-01-30T10:51:59.711Z,89.18
2019-01-30T10:52:58.432Z,85.42
2019-01-30T10:53:56.995Z,84.09
2019-01-30T10:54:55.537Z,83.04
2019-01-30T10:55:54.148Z,81.9
2019-01-30T10:56:52.696Z,82.38
2019-01-30T10:57:51.259Z,99.99
2019-01-30T10:58:49.834Z,99.99
2019-01-30T10:59:48.646Z,99.99
2019-01-30T11:00:47.345Z,96.84
2019-01-30T11:01:45.902Z,99.99
2019-01-30T11:02:46.421Z,99.99
2019-01-30T11:03:43.295Z,93.79
2019-01-30T11:04:41.950Z,85
2019-01-30T11:05:40.563Z,82.91
2019-01-30T11:06:39.154Z,82.24
2019-01-30T11:07:37.748Z,81.67
2019-01-30T11:08:36.589Z,81.58
2019-01-30T11:09:35.250Z,82.05
2019-01-30T11:10:33.814Z,80.34
2019-01-30T11:11:32.375Z,80.82
2019-01-30T11:14:12.797Z,80.86
2019-01-30T11:15:11.359Z,81.1
2019-01-30T11:16:09.901Z,80.63
2019-01-30T11:17:08.809Z,80.44
2019-01-30T11:18:07.318Z,81.2
2019-01-30T11:19:05.901Z,81.29
2019-01-30T11:42:40.866Z,94.08
2019-01-30T11:43:39.425Z,88.71
2019-01-30T11:44:38.029Z,88.71
2019-01-30T11:45:36.547Z,92.7
2019-01-30T11:46:35.147Z,93.46
2019-01-30T11:47:33.732Z,90.61
2019-01-30T11:48:32.620Z,94.7
2019-01-30T11:49:31.334Z,99.99
2019-01-30T11:50:29.988Z,99.99
2019-01-30T11:51:28.647Z,99.99
2019-01-30T11:52:27.202Z,99.99
2019-01-30T11:53:25.756Z,99.99
2019-01-30T11:54:24.707Z,99.99
2019-01-30T11:55:23.406Z,99.99
2019-01-30T11:56:21.936Z,99.99
2019-01-30T11:57:20.621Z,99.02
2019-01-30T11:58:19.227Z,96.08
2019-01-30T11:59:17.937Z,94.98
2019-01-30T12:00:16.776Z,98.65
2019-01-30T12:01:15.327Z,92.89
2019-01-30T12:02:14.048Z,90.42
2019-01-30T12:03:12.804Z,99.99
2019-01-30T12:04:17.615Z,99.99
2019-01-30T12:05:09.934Z,99.99
2019-01-30T12:06:08.575Z,99.99
2019-01-30T12:07:07.242Z,99.99
2019-01-30T12:08:05.846Z,99.99
2019-01-30T12:09:04.644Z,99.99
2019-01-30T12:10:03.303Z,99.26
2019-01-30T12:11:01.862Z,97.74
2019-01-30T12:12:00.434Z,94.42
2019-01-30T12:12:59.006Z,91.18
2019-01-30T12:13:57.560Z,90.09
2019-01-30T12:14:56.107Z,89.61
2019-01-30T12:15:54.646Z,92.27
2019-01-30T12:16:53.210Z,91.61
2019-01-30T12:17:51.749Z,90.19
2019-01-30T12:18:50.447Z,90.19
2019-01-30T12:19:49.031Z,89.14
2019-01-30T12:20:47.560Z,89.61
2019-01-30T12:21:46.116Z,89.23
2019-01-30T12:22:44.909Z,87.62
2019-01-30T12:23:43.448Z,86.76
2019-01-30T12:24:41.995Z,86.86
2019-01-30T12:25:40.869Z,87.43
2019-01-30T12:26:39.438Z,86.67
2019-01-30T12:27:38.168Z,87.05
2019-01-30T12:28:36.989Z,87.62
2019-01-30T12:29:35.528Z,88.47
2019-01-30T12:30:34.071Z,89.42
2019-01-30T12:31:32.746Z,87.66
2019-01-30T12:32:31.363Z,85.91
2019-01-30T12:33:29.847Z,86
2019-01-30T12:34:28.690Z,86.95
2019-01-30T12:35:27.069Z,86.76
2019-01-30T12:36:25.632Z,86.57
2019-01-30T12:37:24.176Z,87.34
2019-01-30T12:38:22.912Z,86.67
2019-01-30T12:39:21.479Z,87.43
2019-01-30T12:40:20.088Z,86.86
2019-01-30T12:41:18.724Z,86.43
2019-01-30T12:42:17.428Z,86.14
2019-01-30T12:43:15.957Z,86.61
2019-01-30T12:44:14.528Z,85.72
2019-01-30T12:45:13.101Z,86.47
2019-01-30T12:46:11.655Z,85.62
2019-01-30T12:47:19.634Z,85.34
2019-01-30T12:48:10.733Z,85.57
2019-01-30T12:49:07.786Z,84.95
2019-01-30T12:50:07.497Z,85.05
2019-01-30T12:51:05.146Z,84.77
2019-01-30T12:52:03.669Z,84.39
2019-01-30T12:53:02.230Z,84.48
2019-01-30T12:54:00.904Z,84.67
2019-01-30T12:54:59.455Z,85.05
2019-01-30T12:55:58.149Z,85.05
2019-01-30T12:56:56.900Z,84.95
2019-01-30T12:57:55.456Z,84.77
2019-01-30T12:58:54.004Z,85.91
2019-01-30T12:59:52.766Z,85.34
2019-01-30T13:00:51.292Z,85.34
2019-01-30T13:01:49.848Z,86
2019-01-30T13:02:48.406Z,86.19
2019-01-30T13:03:47.029Z,86.1
2019-01-30T13:04:45.600Z,85.91
2019-01-30T13:05:44.230Z,85.62
2019-01-30T13:06:42.890Z,85.72
2019-01-30T13:07:41.435Z,85.91
2019-01-30T13:08:39.971Z,86.19
2019-01-30T13:09:38.740Z,86.1
2019-01-30T13:10:37.372Z,86.19
2019-01-30T13:11:36.006Z,86.76
2019-01-30T13:12:34.524Z,86.57
2019-01-30T13:13:33.148Z,86.47
2019-01-30T13:14:31.701Z,86.47
2019-01-30T13:15:30.457Z,86
2019-01-30T13:16:29.209Z,86.29
2019-01-30T13:17:27.740Z,86.47
2019-01-30T13:18:26.353Z,86.47
2019-01-30T13:19:25.119Z,86.86
2019-01-30T13:20:23.648Z,86.67
2019-01-30T13:21:22.188Z,86.67
2019-01-30T13:22:20.864Z,86.57
2019-01-30T13:23:19.388Z,87.14
2019-01-30T13:24:18.081Z,86.86